Ophir, Utah
Current Conditions -  °F | °C
As of 2:59 PM on Tuesday 25 Nov 2014 (Local Time) from KPVU Reporting Station
Overcast Overcast  
Wind Chill: 37°   Ceiling: 5000
Heat Index: 37°   Visibility: 15mi
Dew Point: 19°   Wind: 0mph
Humidity: 48%   Direction: NA
Pressure: 30.35"   Gusts: NA
Location:  40.2688°N, 112.37°W
Report Text: KPVU 252159Z 00000KT 15SM OVC050 03/M07 A3035
Loading
Personal Weather Stations






























Interactive Weather Map New forecast layout! Learn more

10-Day Weather Forecast

Advertisements
Track Severe Weather on mobile